Time;durP1;ratioP1;P1;durP2;ratioP2;P2;SDS_P1;SDS_P2;PMS_P1;PMS_P2;Temp;Humidity;BMP_temperature;BMP_pressure;BME280_temperature;BME280_humidity;BME280_pressure;Samples;Min_cycle;Max_cycle;Signal;HPM_P1;HPM_P2
2021/06/19 00:00:10;;;;;;;7.57;4.00;;;21.70;78.40;;;;;;5075381;28;20482;-81
2021/06/19 00:02:36;;;;;;;7.10;3.45;;;21.70;78.60;;;;;;5075213;28;20070;-81
2021/06/19 00:05:03;;;;;;;7.70;3.40;;;21.70;78.70;;;;;;5075462;28;20024;-81
2021/06/19 00:07:28;;;;;;;6.50;3.20;;;21.60;78.70;;;;;;5075348;28;20024;-81
2021/06/19 00:09:54;;;;;;;5.38;3.45;;;21.60;78.80;;;;;;5075183;28;20031;-81
2021/06/19 00:12:20;;;;;;;3.50;3.17;;;21.60;78.80;;;;;;5075457;28;20471;-81
2021/06/19 00:14:46;;;;;;;6.07;3.78;;;21.50;78.80;;;;;;5075162;28;20047;-81
2021/06/19 00:17:12;;;;;;;4.18;3.58;;;21.50;78.90;;;;;;5075047;28;20039;-81
2021/06/19 00:19:38;;;;;;;4.90;3.63;;;21.50;79.00;;;;;;5075143;28;20359;-81
2021/06/19 00:22:05;;;;;;;4.85;3.40;;;21.40;79.10;;;;;;5075183;28;20069;-81
2021/06/19 00:24:38;;;;;;;5.88;3.38;;;21.40;79.30;;;;;;5074609;28;20332;-81
2021/06/19 00:27:06;;;;;;;4.50;3.65;;;21.40;79.50;;;;;;5074700;28;20021;-81
2021/06/19 00:29:32;;;;;;;4.25;3.67;;;21.40;79.60;;;;;;5074901;28;20036;-81
2021/06/19 00:31:58;;;;;;;6.93;3.15;;;21.30;79.70;;;;;;5074767;28;20471;-81
2021/06/19 00:34:24;;;;;;;5.18;3.50;;;21.30;79.90;;;;;;5073755;28;20021;-81
2021/06/19 00:36:50;;;;;;;6.47;3.58;;;21.30;80.00;;;;;;5074562;28;20124;-81
2021/06/19 00:39:16;;;;;;;6.30;3.47;;;21.30;80.20;;;;;;5073357;28;20020;-81
2021/06/19 00:41:42;;;;;;;5.85;3.33;;;21.30;80.30;;;;;;5074647;28;20033;-78
2021/06/19 00:44:17;;;;;;;7.13;3.60;;;21.20;80.30;;;;;;5074535;28;20032;-81
2021/06/19 00:46:43;;;;;;;4.00;3.40;;;21.20;80.40;;;;;;5074454;28;20025;-78
2021/06/19 00:49:10;;;;;;;4.22;3.28;;;21.20;80.50;;;;;;5074370;28;20031;-80
2021/06/19 00:51:35;;;;;;;4.28;3.22;;;21.20;80.60;;;;;;5074541;28;20020;-80
2021/06/19 00:54:01;;;;;;;6.85;3.45;;;21.10;80.60;;;;;;5072565;28;20043;-81
2021/06/19 00:56:27;;;;;;;5.68;3.10;;;21.10;80.70;;;;;;5074759;28;20086;-79
2021/06/19 00:58:53;;;;;;;8.05;3.33;;;21.10;80.80;;;;;;5074256;28;20056;-79
2021/06/19 01:01:19;;;;;;;4.55;3.20;;;21.10;80.80;;;;;;5074114;28;20491;-79
2021/06/19 01:03:45;;;;;;;6.25;3.30;;;21.10;80.90;;;;;;5073042;28;20037;-79
2021/06/19 01:06:11;;;;;;;6.55;3.50;;;21.10;81.00;;;;;;5074275;28;20762;-79
2021/06/19 01:08:37;;;;;;;10.25;3.83;;;21.00;81.00;;;;;;5074085;28;20088;-79
2021/06/19 01:11:03;;;;;;;4.10;3.70;;;21.00;81.00;;;;;;5073598;28;20017;-78
2021/06/19 01:13:29;;;;;;;4.85;3.60;;;21.00;81.10;;;;;;5073448;28;20522;-77
2021/06/19 01:15:58;;;;;;;3.83;3.20;;;21.00;81.30;;;;;;5073333;28;20017;-77
2021/06/19 01:18:23;;;;;;;8.25;3.55;;;21.00;81.30;;;;;;5073366;28;20032;-77
2021/06/19 01:20:49;;;;;;;5.45;3.22;;;21.00;81.30;;;;;;5073895;28;20470;-77
2021/06/19 01:23:15;;;;;;;10.18;3.33;;;21.00;81.30;;;;;;5073917;28;20025;-78
2021/06/19 01:25:41;;;;;;;5.15;3.20;;;21.00;81.30;;;;;;5074040;28;20025;-78
2021/06/19 01:28:10;;;;;;;6.88;3.50;;;21.00;81.40;;;;;;5074237;28;20025;-78
2021/06/19 01:30:36;;;;;;;6.10;3.30;;;20.90;81.50;;;;;;5073464;28;20471;-78
2021/06/19 01:33:02;;;;;;;4.18;3.22;;;21.00;81.70;;;;;;5072922;28;20028;-78
2021/06/19 01:35:28;;;;;;;8.82;3.20;;;20.90;81.70;;;;;;5072995;28;20028;-80
2021/06/19 01:37:56;;;;;;;5.43;3.10;;;20.90;81.70;;;;;;5073956;28;20386;-80
2021/06/19 01:40:33;;;;;;;4.53;3.28;;;21.00;81.80;;;;;;5073347;28;20017;-80
2021/06/19 01:43:00;;;;;;;11.60;3.70;;;20.90;81.70;;;;;;5073752;28;20023;-80
2021/06/19 01:45:28;;;;;;;7.50;3.25;;;20.90;81.70;;;;;;5073612;28;20020;-80
2021/06/19 01:47:55;;;;;;;3.22;2.92;;;21.00;81.80;;;;;;5073237;28;20048;-80
2021/06/19 01:50:24;;;;;;;8.68;3.10;;;20.90;81.90;;;;;;5073754;28;20070;-80
2021/06/19 01:52:52;;;;;;;7.25;3.40;;;20.90;81.90;;;;;;5072758;28;20073;-78
2021/06/19 01:55:18;;;;;;;11.38;3.90;;;20.90;82.00;;;;;;5072544;28;20123;-77
2021/06/19 01:57:45;;;;;;;5.97;3.58;;;20.90;81.90;;;;;;5072254;28;20032;-78
2021/06/19 02:00:17;;;;;;;7.97;4.60;;;20.90;81.90;;;;;;5072424;28;20056;-78
2021/06/19 02:02:43;;;;;;;7.05;4.35;;;20.90;81.80;;;;;;5072485;28;20066;-78
2021/06/19 02:05:10;;;;;;;4.43;3.67;;;21.00;82.20;;;;;;5071522;28;20029;-77
2021/06/19 02:07:46;;;;;;;5.72;3.40;;;21.20;82.40;;;;;;5072205;28;20029;-77
2021/06/19 02:10:13;;;;;;;5.97;3.53;;;21.40;82.10;;;;;;5071130;28;20116;-78
2021/06/19 02:12:38;;;;;;;8.25;3.25;;;21.60;81.70;;;;;;5072268;28;20025;-78
2021/06/19 02:15:05;;;;;;;6.38;3.83;;;21.90;81.20;;;;;;5072150;28;20451;-78
2021/06/19 02:17:30;;;;;;;7.30;3.33;;;22.30;80.30;;;;;;5071921;28;20060;-77
2021/06/19 02:19:56;;;;;;;14.65;3.85;;;22.60;79.60;;;;;;5072158;28;20059;-78
2021/06/19 02:22:22;;;;;;;7.25;3.50;;;23.00;78.40;;;;;;5071920;28;20025;-77
2021/06/19 02:24:47;;;;;;;5.22;3.17;;;23.30;77.10;;;;;;5072127;28;20024;-77
2021/06/19 02:27:14;;;;;;;5.95;3.00;;;23.60;76.40;;;;;;5072052;28;20041;-77
2021/06/19 02:29:41;;;;;;;5.72;3.10;;;24.00;75.00;;;;;;5072061;28;20024;-77
2021/06/19 02:32:08;;;;;;;6.07;3.00;;;24.40;73.90;;;;;;5072158;28;20030;-77
2021/06/19 02:34:36;;;;;;;3.60;3.00;;;24.70;72.90;;;;;;5072057;28;20367;-77
2021/06/19 02:37:03;;;;;;;7.75;3.45;;;25.20;71.80;;;;;;5071979;28;20074;-79
2021/06/19 02:39:29;;;;;;;6.00;3.80;;;25.40;70.40;;;;;;5072306;28;20043;-79
2021/06/19 02:41:55;;;;;;;7.75;3.20;;;25.50;68.90;;;;;;5072484;28;20095;-79
2021/06/19 02:44:21;;;;;;;6.28;3.80;;;25.70;68.50;;;;;;5072482;28;20091;-79
2021/06/19 02:46:47;;;;;;;4.00;3.40;;;25.90;67.70;;;;;;5072389;28;20040;-78
2021/06/19 02:49:13;;;;;;;12.80;3.60;;;26.20;67.30;;;;;;5072322;28;20103;-79
2021/06/19 02:51:39;;;;;;;9.05;3.55;;;26.30;66.70;;;;;;5070781;28;20035;-79
2021/06/19 02:54:05;;;;;;;7.63;3.20;;;26.80;66.20;;;;;;5071711;28;20076;-78
2021/06/19 02:56:31;;;;;;;10.32;3.65;;;27.20;64.80;;;;;;5071710;28;20033;-78
2021/06/19 02:58:57;;;;;;;8.00;3.40;;;27.20;63.80;;;;;;5071714;28;20067;-78
2021/06/19 03:01:23;;;;;;;9.02;3.30;;;27.30;63.30;;;;;;5071750;28;20448;-79
2021/06/19 03:03:48;;;;;;;5.90;3.10;;;27.20;62.70;;;;;;5071841;28;20040;-78
2021/06/19 03:06:15;;;;;;;8.65;3.05;;;27.20;62.70;;;;;;5072124;28;20757;-78
2021/06/19 03:08:41;;;;;;;4.80;3.28;;;26.70;62.50;;;;;;5072058;28;20048;-77
2021/06/19 03:11:06;;;;;;;5.95;3.05;;;26.00;63.10;;;;;;5071915;28;20059;-78
2021/06/19 03:13:32;;;;;;;5.57;3.30;;;25.30;64.40;;;;;;5072070;28;20027;-77
2021/06/19 03:15:58;;;;;;;9.15;3.42;;;24.70;66.00;;;;;;5072775;28;20088;-77
2021/06/19 03:18:24;;;;;;;3.47;3.13;;;24.70;67.40;;;;;;5075740;28;20059;-77
2021/06/19 03:20:50;;;;;;;5.05;3.10;;;24.50;67.30;;;;;;5076425;28;20062;-77
2021/06/19 03:23:16;;;;;;;3.75;3.30;;;24.10;68.00;;;;;;5076139;28;20078;-77
2021/06/19 03:25:43;;;;;;;7.85;3.78;;;23.80;69.50;;;;;;5073856;28;20040;-77
2021/06/19 03:28:10;;;;;;;7.68;3.10;;;23.60;69.80;;;;;;5075008;28;20027;-77
2021/06/19 03:30:39;;;;;;;6.10;3.00;;;23.50;70.40;;;;;;5074762;28;20021;-77
2021/06/19 03:33:05;;;;;;;3.60;3.20;;;23.20;70.90;;;;;;5074756;28;20021;-77
2021/06/19 03:35:32;;;;;;;8.48;3.35;;;23.00;71.70;;;;;;5074958;28;20025;-77
2021/06/19 03:37:58;;;;;;;6.85;3.40;;;22.80;72.70;;;;;;5074810;28;20027;-78
2021/06/19 03:40:27;;;;;;;6.60;3.60;;;22.70;73.30;;;;;;5074671;28;20372;-78
2021/06/19 03:42:53;;;;;;;5.28;3.42;;;22.70;74.00;;;;;;5074643;28;20375;-78
2021/06/19 03:45:21;;;;;;;3.83;3.17;;;22.60;74.30;;;;;;5074787;28;20016;-78
2021/06/19 03:47:47;;;;;;;7.15;3.28;;;22.70;74.70;;;;;;5075235;28;20028;-80
2021/06/19 03:50:18;;;;;;;4.70;3.40;;;22.90;75.10;;;;;;5074867;28;20031;-77
2021/06/19 03:52:44;;;;;;;6.75;3.72;;;23.20;74.40;;;;;;5074515;28;20020;-78
2021/06/19 03:55:11;;;;;;;7.30;3.60;;;23.40;73.60;;;;;;5074067;28;20049;-78
2021/06/19 03:57:37;;;;;;;7.38;3.15;;;23.40;73.30;;;;;;5075251;28;20384;-80
2021/06/19 04:00:14;;;;;;;5.35;3.58;;;23.60;73.10;;;;;;5075510;28;20406;-79
2021/06/19 04:02:40;;;;;;;8.05;3.55;;;23.70;72.90;;;;;;5075741;28;20044;-80
2021/06/19 04:05:07;;;;;;;5.57;3.15;;;23.70;72.70;;;;;;5075737;28;20032;-79
2021/06/19 04:07:34;;;;;;;7.65;3.60;;;23.90;72.80;;;;;;5074789;28;20028;-78
2021/06/19 04:10:00;;;;;;;4.28;3.30;;;24.00;72.30;;;;;;5074501;28;20074;-78
2021/06/19 04:12:25;;;;;;;6.35;3.70;;;24.10;72.10;;;;;;5074555;28;20020;-78
2021/06/19 04:14:52;;;;;;;9.73;3.60;;;24.40;71.90;;;;;;5074291;28;20047;-79
2021/06/19 04:17:19;;;;;;;12.77;3.28;;;24.60;71.20;;;;;;5074500;28;20058;-79
2021/06/19 04:19:45;;;;;;;7.07;3.47;;;24.70;70.70;;;;;;5074542;28;20105;-79
2021/06/19 04:22:13;;;;;;;7.47;3.40;;;24.90;70.10;;;;;;5074505;28;20039;-79
2021/06/19 04:24:39;;;;;;;4.75;3.40;;;25.20;69.60;;;;;;5074153;28;20667;-80
2021/06/19 04:27:10;;;;;;;7.80;3.70;;;25.50;69.00;;;;;;5073970;28;20043;-80
2021/06/19 04:29:38;;;;;;;3.63;3.05;;;25.90;68.60;;;;;;5073459;28;20020;-81
2021/06/19 04:32:05;;;;;;;8.25;3.95;;;26.60;68.20;;;;;;5073924;28;20032;-80
2021/06/19 04:34:30;;;;;;;8.10;3.42;;;27.60;66.30;;;;;;5074005;28;20025;-80
2021/06/19 04:36:56;;;;;;;8.48;3.78;;;28.00;63.70;;;;;;5072903;28;20356;-80
2021/06/19 04:39:22;;;;;;;6.57;3.65;;;28.20;63.60;;;;;;5074671;28;20021;-81
2021/06/19 04:46:46;;;;;;;6.95;3.60;;;30.50;59.90;;;;;;5073551;28;20031;-81
2021/06/19 04:49:12;;;;;;;12.15;4.10;;;31.00;57.50;;;;;;5073503;28;20155;-81
2021/06/19 04:51:37;;;;;;;8.93;3.78;;;31.20;56.50;;;;;;5073769;28;20100;-81
2021/06/19 04:54:03;;;;;;;6.78;3.88;;;31.70;56.70;;;;;;5073907;28;20388;-81
2021/06/19 04:56:29;;;;;;;5.45;3.47;;;32.40;54.60;;;;;;5073673;28;20033;-81
2021/06/19 04:58:55;;;;;;;6.22;3.33;;;32.60;54.00;;;;;;5073116;28;20032;-78
2021/06/19 05:01:20;;;;;;;7.28;3.65;;;32.90;53.30;;;;;;5072856;28;20074;-78
2021/06/19 05:03:46;;;;;;;4.75;3.60;;;33.10;52.80;;;;;;5073507;28;20024;-79
2021/06/19 05:06:12;;;;;;;3.65;3.33;;;33.40;52.40;;;;;;5073258;28;20439;-79
2021/06/19 05:08:39;;;;;;;4.35;3.42;;;33.90;52.40;;;;;;5073969;28;20363;-81
2021/06/19 05:11:05;;;;;;;6.85;3.85;;;34.60;51.50;;;;;;5074974;28;20031;-80
2021/06/19 05:13:30;;;;;;;11.75;3.72;;;35.20;50.10;;;;;;5075788;28;20021;-81
2021/06/19 05:15:56;;;;;;;9.50;4.13;;;35.20;49.00;;;;;;5073960;28;20024;-81
2021/06/19 05:18:22;;;;;;;8.90;4.10;;;35.30;49.40;;;;;;5072297;28;20028;-81
2021/06/19 05:20:48;;;;;;;6.07;4.07;;;35.50;48.90;;;;;;5072387;28;20095;-78
2021/06/19 05:23:14;;;;;;;8.32;4.32;;;35.80;48.10;;;;;;5072411;28;20073;-79
2021/06/19 05:25:39;;;;;;;7.13;4.20;;;36.00;48.10;;;;;;5072467;28;20021;-81
2021/06/19 05:28:05;;;;;;;9.35;4.10;;;36.50;48.00;;;;;;5073235;28;20029;-78
2021/06/19 05:30:31;;;;;;;6.65;4.55;;;37.10;47.30;;;;;;5071642;28;20096;-78
2021/06/19 05:32:57;;;;;;;11.88;4.97;;;37.40;46.00;;;;;;5072088;28;20029;-80
2021/06/19 05:35:24;;;;;;;7.70;4.30;;;37.50;45.50;;;;;;5071903;28;20024;-80
2021/06/19 05:37:50;;;;;;;10.20;4.57;;;37.60;45.20;;;;;;5071771;28;20467;-81
2021/06/19 05:40:15;;;;;;;5.68;4.13;;;37.80;45.50;;;;;;5070863;28;20467;-78
2021/06/19 05:42:41;;;;;;;9.90;4.20;;;38.60;44.90;;;;;;5072287;28;20033;-80
2021/06/19 05:45:08;;;;;;;6.35;4.35;;;38.80;43.70;;;;;;5071173;28;20025;-80
2021/06/19 05:47:33;;;;;;;7.85;4.10;;;38.70;43.60;;;;;;5069124;28;20395;-80
2021/06/19 05:49:59;;;;;;;6.32;4.22;;;38.30;43.60;;;;;;5070283;28;20032;-78
2021/06/19 05:52:26;;;;;;;4.68;4.13;;;38.40;44.10;;;;;;5070190;28;20017;-79
2021/06/19 05:54:52;;;;;;;10.07;4.13;;;38.90;43.80;;;;;;5070387;28;20032;-81
2021/06/19 05:57:18;;;;;;;7.93;4.15;;;39.50;43.70;;;;;;5070603;28;20070;-79
2021/06/19 05:59:43;;;;;;;6.05;4.10;;;39.90;42.40;;;;;;5070829;28;20028;-82
2021/06/19 06:02:09;;;;;;;7.90;4.03;;;40.00;42.90;;;;;;5071392;28;20099;-80
2021/06/19 06:04:35;;;;;;;11.88;4.80;;;40.10;41.90;;;;;;5070323;28;20020;-80
2021/06/19 06:07:02;;;;;;;6.90;3.90;;;40.10;42.10;;;;;;5070401;28;20371;-80
2021/06/19 06:09:28;;;;;;;10.43;4.50;;;40.40;41.50;;;;;;5070550;28;20078;-78
2021/06/19 06:11:53;;;;;;;6.45;4.05;;;40.20;41.30;;;;;;5070138;28;20489;-79
2021/06/19 06:14:20;;;;;;;5.00;4.15;;;40.20;41.10;;;;;;5070957;28;20107;-80
2021/06/19 06:16:45;;;;;;;9.57;4.47;;;40.00;41.50;;;;;;5071219;28;20034;-80
2021/06/19 06:19:11;;;;;;;12.82;6.28;;;40.00;41.80;;;;;;5070745;28;21338;-81
2021/06/19 06:21:37;;;;;;;10.65;4.10;;;40.30;42.30;;;;;;5071209;28;20027;-80
2021/06/19 06:24:04;;;;;;;6.07;3.92;;;40.90;41.80;;;;;;5071446;28;20190;-80
2021/06/19 06:26:29;;;;;;;8.20;4.40;;;40.90;40.90;;;;;;5071874;28;20044;-81
2021/06/19 06:28:55;;;;;;;6.75;4.38;;;40.90;41.20;;;;;;5071205;28;20059;-80
2021/06/19 06:31:21;;;;;;;5.40;4.50;;;41.10;40.80;;;;;;5071664;28;20025;-80
2021/06/19 06:33:47;;;;;;;9.77;4.60;;;40.90;40.40;;;;;;5071544;28;20016;-79
2021/06/19 06:36:13;;;;;;;11.52;5.00;;;40.80;40.70;;;;;;5071442;28;20048;-79
2021/06/19 06:38:39;;;;;;;5.80;4.00;;;40.60;40.60;;;;;;5071250;28;20071;-79
2021/06/19 06:41:04;;;;;;;7.78;4.72;;;40.70;41.10;;;;;;5071028;28;20029;-80
2021/06/19 06:43:30;;;;;;;7.32;4.15;;;41.10;40.80;;;;;;5069272;28;20070;-81
2021/06/19 06:45:56;;;;;;;5.32;4.00;;;41.50;40.70;;;;;;5071390;28;20035;-81
2021/06/19 06:48:22;;;;;;;7.13;4.32;;;41.80;40.10;;;;;;5070819;28;20032;-81
2021/06/19 06:50:48;;;;;;;6.32;4.20;;;41.90;39.50;;;;;;5070995;28;20115;-81
2021/06/19 06:53:13;;;;;;;10.98;4.70;;;42.00;39.30;;;;;;5075365;28;20056;-82
2021/06/19 06:55:39;;;;;;;13.02;4.75;;;42.10;39.30;;;;;;5075139;28;20051;-80
2021/06/19 06:58:05;;;;;;;11.40;4.93;;;42.10;39.40;;;;;;5074859;28;20037;-81
2021/06/19 07:00:30;;;;;;;5.07;3.88;;;42.20;39.60;;;;;;5075650;28;20096;-79
2021/06/19 07:02:57;;;;;;;8.77;4.32;;;42.10;38.60;;;;;;5074821;28;20016;-80
2021/06/19 07:05:23;;;;;;;5.97;3.75;;;41.70;39.00;;;;;;5075324;28;20016;-81
2021/06/19 07:07:48;;;;;;;9.90;4.32;;;41.50;38.90;;;;;;5074810;28;20036;-81
2021/06/19 07:10:15;;;;;;;6.97;3.88;;;41.20;39.80;;;;;;5073210;28;20073;-82
2021/06/19 07:12:53;;;;;;;7.95;3.88;;;41.10;40.10;;;;;;5074247;28;20028;-82
2021/06/19 07:15:19;;;;;;;6.85;3.95;;;41.30;40.20;;;;;;5073216;28;20120;-80
2021/06/19 07:17:49;;;;;;;9.25;5.07;;;41.20;39.60;;;;;;5074201;28;20092;-80
2021/06/19 07:20:20;;;;;;;5.50;3.92;;;41.20;40.00;;;;;;5072814;28;20033;-82
2021/06/19 07:22:46;;;;;;;;;;;41.30;39.90;;;;;;5073484;28;20031;-81
2021/06/19 07:25:42;;;;;;;8.35;4.15;;;41.00;39.70;;;;;;5073955;28;19912;-80
2021/06/19 07:28:09;;;;;;;8.60;3.90;;;39.80;39.80;;;;;;5068964;28;20056;-80
2021/06/19 07:30:35;;;;;;;6.53;4.43;;;38.90;40.80;;;;;;5073080;28;20020;-80
2021/06/19 07:33:34;;;;;;;5.07;4.07;;;37.80;41.70;;;;;;5073786;28;20032;-81
2021/06/19 07:36:20;;;;;;;8.93;4.20;;;36.90;43.10;;;;;;5072286;28;20231;-82
2021/06/19 07:38:53;;;;;;;6.00;3.65;;;36.70;44.00;;;;;;5074231;28;20443;-82
2021/06/19 07:41:24;;;;;;;8.27;3.92;;;36.80;44.30;;;;;;5072467;28;20383;-81
2021/06/19 07:44:01;;;;;;;8.48;4.15;;;37.20;44.30;;;;;;5073937;28;20025;-81
2021/06/19 07:46:43;;;;;;;7.60;4.45;;;37.50;43.90;;;;;;5072796;28;20031;-82
2021/06/19 07:49:10;;;;;;;7.93;4.60;;;37.50;43.90;;;;;;5074101;28;20047;-82
2021/06/19 07:51:48;;;;;;;7.53;4.70;;;37.10;43.90;;;;;;5074513;28;20028;-83
2021/06/19 07:54:22;;;;;;;7.80;4.75;;;36.50;44.20;;;;;;5071385;28;20052;-80
2021/06/19 07:57:04;;;;;;;9.80;5.03;;;35.50;45.20;;;;;;5073634;28;20029;-81
2021/06/19 07:59:39;;;;;;;10.02;5.03;;;34.90;46.40;;;;;;5073096;28;20489;-80
2021/06/19 08:02:14;;;;;;;13.25;5.30;;;34.50;47.50;;;;;;5073445;28;20417;-77
2021/06/19 08:04:42;;;;;;;9.85;5.28;;;34.30;47.90;;;;;;5072155;28;20061;-77
2021/06/19 08:07:12;;;;;;;13.27;5.18;;;34.30;48.10;;;;;;5072170;28;20383;-79
2021/06/19 08:09:48;;;;;;;13.02;5.53;;;34.00;48.60;;;;;;5072960;28;20379;-79
2021/06/19 08:12:19;;;;;;;12.75;4.90;;;33.90;49.00;;;;;;5073369;28;20099;-78
2021/06/19 08:15:31;;;;;;;7.90;4.73;;;33.70;49.30;;;;;;5073600;28;20384;-83
2021/06/19 08:18:15;;;;;;;11.98;6.00;;;33.40;49.80;;;;;;5073715;28;20052;-80
2021/06/19 08:54:21;;;;;;;12.35;5.68;;;32.00;53.60;;;;;;5091568;28;20048;-83
2021/06/19 08:56:48;;;;;;;7.68;6.50;;;32.10;53.70;;;;;;5095865;28;20020;-84
2021/06/19 08:59:14;;;;;;;9.32;6.70;;;32.10;53.50;;;;;;5095731;28;20059;-84
2021/06/19 09:01:40;;;;;;;13.52;6.20;;;32.10;53.20;;;;;;5094962;28;20412;-82
2021/06/19 09:04:08;;;;;;;8.45;6.20;;;32.00;53.10;;;;;;5094707;28;20050;-83
2021/06/19 09:06:44;;;;;;;13.88;5.90;;;31.70;53.40;;;;;;5094900;28;20028;-84
2021/06/19 09:09:14;;;;;;;13.32;5.95;;;31.50;54.00;;;;;;5094882;28;20028;-83
2021/06/19 09:11:48;;;;;;;16.85;6.63;;;31.40;54.40;;;;;;5096407;28;20564;-83
2021/06/19 09:14:25;;;;;;;14.43;6.00;;;31.30;54.80;;;;;;5094959;28;20103;-83
2021/06/19 09:17:03;;;;;;;9.43;6.47;;;31.00;55.10;;;;;;5095053;28;20505;-83
2021/06/19 09:19:34;;;;;;;14.10;6.22;;;30.70;55.90;;;;;;5094281;28;20024;-88
2021/06/19 09:22:10;;;;;;;10.10;6.40;;;30.30;56.90;;;;;;5094239;28;20470;-85
2021/06/19 09:24:52;;;;;;;14.98;6.45;;;29.90;58.30;;;;;;5094264;28;20024;-85
2021/06/19 09:27:49;;;;;;;11.95;6.20;;;29.80;58.70;;;;;;5094458;28;20150;-87
2021/06/19 09:30:22;;;;;;;9.52;5.97;;;29.90;59.20;;;;;;5076193;28;20040;-88
2021/06/19 09:32:49;;;;;;;11.00;6.32;;;30.20;59.40;;;;;;5109672;28;20028;-89
2021/06/19 09:35:17;;;;;;;7.50;6.57;;;30.30;58.40;;;;;;5093743;28;20020;-82
2021/06/19 09:37:46;;;;;;;9.35;6.22;;;30.40;58.10;;;;;;5092862;28;20020;-82
2021/06/19 09:40:25;;;;;;;14.80;6.60;;;30.20;58.10;;;;;;5093774;28;20408;-83
2021/06/19 09:42:52;;;;;;;11.52;6.20;;;30.30;58.50;;;;;;5093726;28;20026;-83
2021/06/19 09:45:23;;;;;;;11.75;5.82;;;30.40;58.70;;;;;;5093681;28;20050;-83
2021/06/19 09:47:49;;;;;;;9.63;6.75;;;30.50;58.40;;;;;;5092567;28;20523;-83
2021/06/19 09:50:18;;;;;;;16.42;5.40;;;30.60;58.10;;;;;;5093108;28;20474;-83
2021/06/19 09:52:44;;;;;;;9.85;5.30;;;30.80;57.90;;;;;;5093702;28;20052;-84
2021/06/19 09:55:12;;;;;;;10.98;5.07;;;30.70;57.60;;;;;;5093239;28;20496;-83
2021/06/19 09:57:41;;;;;;;9.32;4.90;;;30.60;57.70;;;;;;5073548;28;20070;-82
2021/06/19 10:00:13;;;;;;;8.20;4.88;;;30.30;58.00;;;;;;5073242;28;20466;-85
2021/06/19 10:02:39;;;;;;;13.27;4.72;;;29.90;58.80;;;;;;5092123;28;20481;-82
2021/06/19 10:05:10;;;;;;;9.15;4.53;;;29.50;59.30;;;;;;5091333;28;20026;-81
2021/06/19 10:07:36;;;;;;;10.07;4.28;;;29.00;59.90;;;;;;5091450;28;20097;-83
2021/06/19 10:10:07;;;;;;;17.45;4.82;;;28.70;60.00;;;;;;5073448;28;20395;-83
2021/06/19 10:12:34;;;;;;;;;;;28.40;60.30;;;;;;5092241;28;20107;-82
2021/06/19 10:15:07;;;;;;;14.88;4.20;;;28.40;60.20;;;;;;5074514;28;19943;-84
2021/06/19 10:17:35;;;;;;;10.05;4.43;;;28.40;60.70;;;;;;5092185;28;20074;-82
2021/06/19 10:20:03;;;;;;;12.25;3.83;;;28.50;59.90;;;;;;5091961;28;20027;-78
2021/06/19 10:22:31;;;;;;;11.70;4.07;;;28.80;60.00;;;;;;5090877;28;20016;-78
2021/06/19 10:25:00;;;;;;;7.93;3.17;;;29.10;59.20;;;;;;5091014;28;20057;-77
2021/06/19 10:27:29;;;;;;;18.67;4.25;;;29.40;58.00;;;;;;5075148;28;20035;-78
2021/06/19 10:29:57;;;;;;;13.75;3.95;;;29.40;57.40;;;;;;5076493;28;20020;-80
2021/06/19 10:32:46;;;;;;;6.15;3.22;;;29.10;57.60;;;;;;5094666;28;20036;-79
2021/06/19 10:35:16;;;;;;;8.10;3.20;;;28.90;57.80;;;;;;5095519;28;20032;-79
2021/06/19 10:37:43;;;;;;;9.27;3.42;;;28.80;58.00;;;;;;5095229;28;20048;-79
2021/06/19 10:40:25;;;;;;;8.05;3.25;;;28.70;57.70;;;;;;5076976;28;20020;-79
2021/06/19 10:42:55;;;;;;;9.80;3.60;;;28.50;58.30;;;;;;5095164;28;20063;-79
2021/06/19 10:45:30;;;;;;;9.33;3.33;;;28.50;58.90;;;;;;5094604;28;20024;-79
2021/06/19 10:48:12;;;;;;;8.30;3.20;;;28.50;58.40;;;;;;5076907;28;20028;-79
2021/06/19 10:50:41;;;;;;;12.63;3.75;;;28.50;58.40;;;;;;5095194;28;20021;-78
2021/06/19 10:53:16;;;;;;;8.75;3.78;;;28.70;58.30;;;;;;5094785;28;20150;-79
2021/06/19 10:55:42;;;;;;;7.72;3.28;;;28.80;58.20;;;;;;5076787;28;20027;-79
2021/06/19 10:58:18;;;;;;;9.48;3.20;;;28.80;58.30;;;;;;5094765;28;20084;-79
2021/06/19 11:00:46;;;;;;;10.18;3.45;;;28.70;57.70;;;;;;5095633;28;20080;-78
2021/06/19 11:03:13;;;;;;;9.00;3.60;;;28.70;58.40;;;;;;5094668;28;20048;-78
2021/06/19 11:05:42;;;;;;;13.68;6.80;;;28.80;57.90;;;;;;5094424;28;20021;-79
2021/06/19 11:08:13;;;;;;;7.72;3.45;;;29.00;58.30;;;;;;5094779;28;20024;-79
2021/06/19 11:10:45;;;;;;;8.30;3.73;;;29.20;57.40;;;;;;5094823;28;20028;-78
2021/06/19 11:13:46;;;;;;;13.05;4.00;;;29.30;57.60;;;;;;5094460;28;20031;-79
2021/06/19 11:16:33;;;;;;;9.03;3.80;;;29.50;57.20;;;;;;4976378;28;20436;-79
2021/06/19 11:18:59;;;;;;;8.27;3.33;;;30.00;57.30;;;;;;5088249;28;20044;-78
2021/06/19 11:21:32;;;;;;;10.20;3.83;;;30.20;56.80;;;;;;5094114;28;20024;-79
2021/06/19 11:24:01;;;;;;;8.00;3.13;;;30.10;56.10;;;;;;5094429;28;20028;-83
2021/06/19 11:26:54;;;;;;;8.00;3.35;;;30.10;56.30;;;;;;5076941;28;20119;-83
2021/06/19 11:29:35;;;;;;;9.10;4.90;;;30.10;55.80;;;;;;5094873;28;20020;-82
2021/06/19 11:32:26;;;;;;;13.90;6.22;;;30.20;56.40;;;;;;5095199;28;20023;-82
2021/06/19 11:34:59;;;;;;;7.78;3.05;;;30.30;56.60;;;;;;5095805;28;20052;-83
2021/06/19 11:37:52;;;;;;;15.00;3.50;;;30.20;55.70;;;;;;5094751;28;20028;-83
2021/06/19 11:40:32;;;;;;;12.68;3.47;;;30.00;56.10;;;;;;5095410;28;20012;-82
2021/06/19 11:42:59;;;;;;;8.13;3.20;;;30.00;55.90;;;;;;5095548;28;20077;-83
2021/06/19 11:45:25;;;;;;;10.35;3.35;;;29.90;55.40;;;;;;5095149;28;20103;-83
2021/06/19 11:48:05;;;;;;;7.03;3.40;;;29.70;55.60;;;;;;5094857;28;20470;-83
2021/06/19 11:50:38;;;;;;;7.25;3.67;;;29.50;55.80;;;;;;5094858;28;20027;-82
2021/06/19 11:53:22;;;;;;;7.25;3.90;;;29.40;56.20;;;;;;5094888;28;20052;-82
2021/06/19 11:55:49;;;;;;;10.30;3.83;;;29.30;56.70;;;;;;5094512;28;20413;-84
2021/06/19 11:58:15;;;;;;;10.30;4.25;;;29.40;57.10;;;;;;5095422;28;20043;-82
2021/06/19 12:00:56;;;;;;;9.93;5.45;;;29.60;57.00;;;;;;5095071;28;20081;-83
2021/06/19 12:03:22;;;;;;;17.00;6.00;;;29.70;57.10;;;;;;5094891;28;20035;-82
2021/06/19 12:05:48;;;;;;;7.63;3.10;;;29.60;56.80;;;;;;5094386;28;20028;-83
2021/06/19 12:08:14;;;;;;;249.15;123.13;;;29.50;56.40;;;;;;5076130;28;20024;-82
2021/06/19 12:10:40;;;;;;;17.80;9.02;;;29.20;57.00;;;;;;5095088;28;20064;-83
2021/06/19 12:13:09;;;;;;;383.02;227.45;;;28.90;57.20;;;;;;5094621;28;20109;-82
2021/06/19 12:15:35;;;;;;;32.95;23.10;;;28.60;57.60;;;;;;5094548;28;20024;-83
2021/06/19 12:18:04;;;;;;;16.85;5.38;;;28.50;58.60;;;;;;5076560;28;20438;-82
2021/06/19 12:20:30;;;;;;;16.48;6.10;;;28.30;60.00;;;;;;5094221;28;20072;-83
2021/06/19 12:22:56;;;;;;;8.93;3.50;;;27.90;64.00;;;;;;5096550;28;20512;-86
2021/06/19 12:25:29;;;;;;;13.02;4.80;;;26.60;70.90;;;;;;5097523;28;20029;-85
2021/06/19 12:27:55;;;;;;;12.88;6.25;;;25.00;78.20;;;;;;5077472;28;20035;-84
2021/06/19 12:30:21;;;;;;;15.98;8.63;;;24.10;85.10;;;;;;5095191;28;20024;-86
2021/06/19 12:32:48;;;;;;;10.52;3.65;;;23.70;91.00;;;;;;5076808;28;20035;-79
2021/06/19 12:35:17;;;;;;;8.63;4.47;;;23.30;91.20;;;;;;5093628;28;20020;-79
2021/06/19 12:37:49;;;;;;;13.95;4.85;;;22.90;91.90;;;;;;5093563;28;20107;-79
2021/06/19 12:40:15;;;;;;;19.23;5.63;;;22.50;93.80;;;;;;5093828;28;20031;-80
2021/06/19 12:42:43;;;;;;;9.07;4.75;;;22.40;95.50;;;;;;5093716;28;20062;-80
2021/06/19 12:45:15;;;;;;;15.85;5.90;;;22.40;97.40;;;;;;5093412;28;20481;-80
2021/06/19 12:47:44;;;;;;;;;;;22.60;98.40;;;;;;5093193;28;20028;-78
2021/06/19 12:50:11;;;;;;;9.57;4.70;;;22.70;99.90;;;;;;5092291;28;19995;-78
2021/06/19 12:53:05;;;;;;;11.23;4.97;;;22.90;99.90;;;;;;5092661;28;20059;-79
2021/06/19 12:55:37;;;;;;;6.72;4.30;;;22.90;99.70;;;;;;5092426;28;20082;-80
2021/06/19 12:58:12;;;;;;;9.80;4.85;;;23.00;99.00;;;;;;5092752;28;20024;-80
2021/06/19 13:00:54;;;;;;;10.60;6.47;;;23.00;99.10;;;;;;5092697;28;20470;-80
2021/06/19 13:03:40;;;;;;;11.35;6.35;;;23.10;99.20;;;;;;5075287;28;20028;-80
2021/06/19 13:06:07;;;;;;;27.60;14.32;;;23.10;99.90;;;;;;5057335;28;20149;-79
2021/06/19 13:08:34;;;;;;;25.50;12.05;;;23.30;99.90;;;;;;5074427;28;20031;-80
2021/06/19 13:11:17;;;;;;;21.40;9.43;;;23.50;99.90;;;;;;5092576;28;20031;-80
2021/06/19 13:13:45;;;;;;;16.00;6.95;;;23.70;99.90;;;;;;5092607;28;20462;-79
2021/06/19 13:16:13;;;;;;;12.07;4.60;;;23.80;99.90;;;;;;5074275;28;20036;-79
2021/06/19 13:18:40;;;;;;;16.60;9.43;;;23.90;99.80;;;;;;5092500;28;20032;-79
2021/06/19 13:21:14;;;;;;;11.40;6.05;;;24.00;99.90;;;;;;5108427;28;20028;-79
2021/06/19 13:23:44;;;;;;;12.82;5.80;;;24.10;99.90;;;;;;5092213;28;20100;-80
2021/06/19 13:26:25;;;;;;;10.32;5.03;;;24.20;99.90;;;;;;5092136;28;20027;-79
2021/06/19 13:29:22;;;;;;;9.32;4.88;;;24.40;99.90;;;;;;5092669;28;20370;-80
2021/06/19 13:31:47;;;;;;;13.75;7.28;;;24.60;99.90;;;;;;5071710;28;20028;-80
2021/06/19 13:34:19;;;;;;;20.80;9.20;;;24.70;99.90;;;;;;5092259;28;20414;-80